createdAt,value
2023-05-05T00:02:18.386Z,57.67
2023-05-05T00:04:55.035Z,47.10
2023-05-05T00:07:30.091Z,53.27
2023-05-05T00:10:16.197Z,58.00
2023-05-05T00:12:52.206Z,59.50
2023-05-05T00:15:31.849Z,64.00
2023-05-05T00:18:06.616Z,46.63
2023-05-05T00:20:45.100Z,48.63
2023-05-05T00:23:20.836Z,45.97
2023-05-05T00:26:09.194Z,49.85
2023-05-05T00:28:45.385Z,55.83
2023-05-05T00:31:25.137Z,49.60
2023-05-05T00:34:02.841Z,53.77
2023-05-05T00:36:38.790Z,44.63
2023-05-05T00:39:15.908Z,51.40
2023-05-05T00:41:54.083Z,49.53
2023-05-05T00:44:44.078Z,44.83
2023-05-05T00:47:19.872Z,58.73
2023-05-05T00:49:56.843Z,53.33
2023-05-05T00:52:37.740Z,50.23
2023-05-05T00:55:32.264Z,53.17
2023-05-05T00:58:15.401Z,67.43
2023-05-05T01:00:54.665Z,49.47
2023-05-05T01:03:33.627Z,52.03
2023-05-05T01:06:20.451Z,58.17
2023-05-05T01:09:06.662Z,54.40
2023-05-05T01:11:52.119Z,51.93
2023-05-05T01:14:45.789Z,61.67
2023-05-05T01:17:23.062Z,54.50
2023-05-05T01:20:12.185Z,59.67
2023-05-05T01:22:51.658Z,69.47
2023-05-05T01:26:21.953Z,57.03
2023-05-05T01:29:46.205Z,66.70
2023-05-05T01:32:27.290Z,49.03
2023-05-05T01:35:08.178Z,72.57
2023-05-05T01:37:54.668Z,61.37
2023-05-05T01:40:34.465Z,68.67
2023-05-05T01:43:13.093Z,55.70
2023-05-05T01:45:50.343Z,60.13
2023-05-05T01:48:52.232Z,60.60
2023-05-05T01:51:30.466Z,55.63
2023-05-05T01:54:12.518Z,61.17
2023-05-05T01:56:52.115Z,58.67
2023-05-05T01:59:32.421Z,53.63
2023-05-05T02:02:08.315Z,49.10
2023-05-05T02:04:49.135Z,52.80
2023-05-05T02:07:23.736Z,52.80
2023-05-05T02:09:59.016Z,58.97
2023-05-05T02:12:34.677Z,72.97
2023-05-05T02:15:13.334Z,56.60
2023-05-05T02:17:48.938Z,54.92
2023-05-05T02:20:32.422Z,62.40
2023-05-05T02:23:10.340Z,64.43
2023-05-05T02:25:52.789Z,56.38
2023-05-05T02:28:30.712Z,66.00
2023-05-05T02:31:06.926Z,58.95
2023-05-05T02:33:43.670Z,73.50
2023-05-05T02:36:28.412Z,66.53
2023-05-05T02:39:21.450Z,58.17
2023-05-05T02:41:59.157Z,53.55
2023-05-05T02:44:42.256Z,75.85
2023-05-05T02:47:21.884Z,72.28
2023-05-05T02:50:06.327Z,60.75
2023-05-05T02:52:44.528Z,55.10
2023-05-05T02:55:24.848Z,66.78
2023-05-05T02:58:11.385Z,64.78
2023-05-05T03:00:56.888Z,65.03
2023-05-05T03:03:50.142Z,67.70
2023-05-05T03:06:29.633Z,61.88
2023-05-05T03:09:14.932Z,65.95
2023-05-05T03:12:03.007Z,77.45
2023-05-05T03:14:47.125Z,60.42
2023-05-05T03:17:23.875Z,59.30
2023-05-05T03:20:03.479Z,66.78
2023-05-05T03:22:47.685Z,64.35
2023-05-05T03:25:28.196Z,73.20
2023-05-05T03:28:04.055Z,74.03
2023-05-05T03:30:39.782Z,57.60
2023-05-05T03:33:15.159Z,62.67
2023-05-05T03:35:49.310Z,67.70
2023-05-05T03:38:26.254Z,61.45
2023-05-05T03:41:11.240Z,71.68
2023-05-05T03:43:50.411Z,68.22
2023-05-05T03:46:24.727Z,73.90
2023-05-05T03:49:01.713Z,54.45
2023-05-05T03:51:41.035Z,68.32
2023-05-05T03:54:18.631Z,75.45
2023-05-05T03:56:55.510Z,71.63
2023-05-05T03:59:32.576Z,64.40
2023-05-05T04:02:08.984Z,70.82
2023-05-05T04:04:45.222Z,68.65
2023-05-05T04:07:23.649Z,79.88
2023-05-05T04:10:17.055Z,75.70
2023-05-05T04:12:54.387Z,67.30
2023-05-05T04:15:30.379Z,67.60
2023-05-05T04:18:06.469Z,66.72
2023-05-05T04:20:43.753Z,68.82
2023-05-05T04:23:21.858Z,81.15
2023-05-05T04:26:01.913Z,64.22
2023-05-05T04:28:42.207Z,71.97
2023-05-05T04:31:22.663Z,79.05
2023-05-05T04:33:59.741Z,68.72
2023-05-05T04:36:34.272Z,66.38
2023-05-05T04:39:13.764Z,68.80
2023-05-05T04:41:52.956Z,71.93
2023-05-05T04:44:29.229Z,79.63
2023-05-05T04:47:06.915Z,68.90
2023-05-05T04:49:46.041Z,61.63
2023-05-05T04:52:24.548Z,70.47
2023-05-05T04:55:13.693Z,70.70
2023-05-05T04:57:46.990Z,63.55
2023-05-05T05:00:25.213Z,73.45
2023-05-05T05:03:06.978Z,68.40
2023-05-05T05:05:43.396Z,70.35
2023-05-05T05:08:22.055Z,71.18
2023-05-05T05:11:09.539Z,66.32
2023-05-05T05:13:45.428Z,59.33
2023-05-05T05:16:22.094Z,55.10
2023-05-05T05:19:04.781Z,67.10
2023-05-05T05:21:42.231Z,61.83
2023-05-05T05:24:19.316Z,67.00
2023-05-05T05:27:04.715Z,75.50
2023-05-05T05:29:40.986Z,69.78
2023-05-05T05:32:26.762Z,77.32
2023-05-05T05:35:04.752Z,59.88
2023-05-05T05:37:42.315Z,71.13
2023-05-05T05:40:16.176Z,58.13
2023-05-05T05:42:52.368Z,60.67
2023-05-05T05:45:28.380Z,60.72
2023-05-05T05:48:12.277Z,69.88
2023-05-05T05:50:52.532Z,60.25
2023-05-05T05:53:29.713Z,55.28
2023-05-05T05:56:04.832Z,62.83
2023-05-05T05:58:44.477Z,56.50
2023-05-05T06:01:19.499Z,60.35
2023-05-05T06:04:00.863Z,64.15
2023-05-05T06:06:37.620Z,77.32
2023-05-05T06:09:12.516Z,63.47
2023-05-05T06:11:48.681Z,58.50
2023-05-05T06:14:22.047Z,68.18
2023-05-05T06:17:03.898Z,59.25
2023-05-05T06:19:42.572Z,53.30
2023-05-05T06:22:18.426Z,77.30
2023-05-05T06:24:54.685Z,62.15
2023-05-05T06:27:32.511Z,66.97
2023-05-05T06:30:08.166Z,56.72
2023-05-05T06:35:43.060Z,67.53
2023-05-05T06:38:17.621Z,65.75
2023-05-05T06:40:52.932Z,74.07
2023-05-05T06:43:28.203Z,63.75
2023-05-05T06:46:07.053Z,67.25
2023-05-05T06:48:43.356Z,65.88
2023-05-05T06:51:21.077Z,61.22
2023-05-05T06:53:59.343Z,66.43
2023-05-05T06:56:36.575Z,67.95
2023-05-05T06:59:19.176Z,58.03
2023-05-05T07:01:57.403Z,66.50
2023-05-05T07:04:32.810Z,63.03
2023-05-05T07:07:15.247Z,70.90
2023-05-05T07:09:48.989Z,55.85
2023-05-05T07:12:25.830Z,61.70
2023-05-05T07:15:12.189Z,66.68
2023-05-05T07:17:58.994Z,77.28
2023-05-05T07:20:34.565Z,70.57
2023-05-05T07:23:13.897Z,60.60
2023-05-05T07:25:50.786Z,62.70
2023-05-05T07:28:25.303Z,74.07
2023-05-05T07:31:05.275Z,54.50
2023-05-05T07:33:43.470Z,66.15
2023-05-05T07:36:20.951Z,65.18
2023-05-05T07:39:07.685Z,56.47
2023-05-05T07:41:43.484Z,64.20
2023-05-05T07:44:18.219Z,58.25
2023-05-05T07:46:57.867Z,59.70
2023-05-05T07:49:33.821Z,76.15
2023-05-05T07:52:07.142Z,59.45
2023-05-05T07:54:49.209Z,68.60
2023-05-05T07:57:25.343Z,61.38
2023-05-05T08:00:05.792Z,63.83
2023-05-05T08:02:48.275Z,59.28
2023-05-05T08:05:27.869Z,61.25
2023-05-05T08:08:02.324Z,56.00
2023-05-05T08:10:40.966Z,60.50
2023-05-05T08:13:18.145Z,66.37
2023-05-05T08:15:51.652Z,61.33
2023-05-05T08:18:26.406Z,65.13
2023-05-05T08:21:01.174Z,72.95
2023-05-05T08:23:38.408Z,64.30
2023-05-05T08:26:16.273Z,67.55
2023-05-05T08:28:52.065Z,63.75
2023-05-05T08:31:30.312Z,60.25
2023-05-05T08:34:05.100Z,61.03
2023-05-05T08:36:42.430Z,62.88
2023-05-05T08:39:20.825Z,64.93
2023-05-05T08:41:57.421Z,70.53
2023-05-05T08:44:36.624Z,60.90
2023-05-05T08:47:12.889Z,56.20
2023-05-05T08:49:55.591Z,68.73
2023-05-05T08:52:47.635Z,62.37
2023-05-05T08:55:27.972Z,67.63
2023-05-05T08:58:07.891Z,59.47
2023-05-05T09:00:49.704Z,65.60
2023-05-05T09:03:29.298Z,62.40
2023-05-05T09:06:05.875Z,61.03
2023-05-05T09:08:42.560Z,63.53
2023-05-05T09:11:21.976Z,61.87
2023-05-05T09:13:57.988Z,59.03
2023-05-05T09:16:34.081Z,51.33
2023-05-05T09:19:13.690Z,57.13
2023-05-05T09:21:52.818Z,67.77
2023-05-05T09:24:25.812Z,62.50
2023-05-05T09:27:04.918Z,55.83
2023-05-05T09:29:52.136Z,63.43
2023-05-05T09:32:38.067Z,60.83
2023-05-05T09:35:25.718Z,62.43
2023-05-05T09:38:05.218Z,62.73
2023-05-05T09:40:51.701Z,53.20
2023-05-05T09:43:25.847Z,48.67
2023-05-05T09:46:14.838Z,65.63
2023-05-05T09:49:02.610Z,66.13
2023-05-05T09:51:37.806Z,72.83
2023-05-05T09:54:17.073Z,63.67
2023-05-05T09:56:53.027Z,71.47
2023-05-05T09:59:28.852Z,61.60
2023-05-05T10:02:16.964Z,62.87
2023-05-05T10:04:53.944Z,61.17
2023-05-05T10:07:31.539Z,76.97
2023-05-05T10:10:10.331Z,55.90
2023-05-05T10:12:46.554Z,57.73
2023-05-05T10:15:25.053Z,82.27
2023-05-05T10:18:08.247Z,60.57
2023-05-05T10:20:44.843Z,60.77
2023-05-05T10:23:25.878Z,61.27
2023-05-05T10:26:06.785Z,54.67
2023-05-05T10:28:53.662Z,58.33
2023-05-05T10:31:34.400Z,57.63
2023-05-05T10:34:19.170Z,63.50
2023-05-05T10:36:54.018Z,62.67
2023-05-05T10:39:29.706Z,68.83
2023-05-05T10:42:08.453Z,60.07
2023-05-05T10:44:43.188Z,62.30
2023-05-05T10:47:19.805Z,66.83
2023-05-05T10:50:15.712Z,62.50
2023-05-05T10:53:02.124Z,65.83
2023-05-05T10:58:56.051Z,65.77
2023-05-05T11:01:43.817Z,61.07
2023-05-05T11:04:26.861Z,59.97
2023-05-05T11:07:33.037Z,58.17
2023-05-05T11:10:10.503Z,70.20
2023-05-05T11:13:25.956Z,60.60
2023-05-05T11:16:03.326Z,66.03
2023-05-05T11:18:45.990Z,78.00
2023-05-05T11:21:23.501Z,65.30
2023-05-05T11:24:33.230Z,54.47
2023-05-05T11:27:11.128Z,76.27
2023-05-05T11:30:17.410Z,68.07
2023-05-05T11:33:29.902Z,79.23
2023-05-05T11:36:08.318Z,58.00
2023-05-05T11:39:10.233Z,66.03
2023-05-05T11:42:26.159Z,76.87
2023-05-05T11:45:10.140Z,60.33
2023-05-05T11:50:41.578Z,73.70
2023-05-05T11:53:23.290Z,73.33
2023-05-05T11:56:12.257Z,83.80
2023-05-05T11:58:51.866Z,70.40
2023-05-05T12:01:28.979Z,63.20
2023-05-05T12:04:10.151Z,60.60
2023-05-05T12:06:51.643Z,72.67
2023-05-05T12:09:30.768Z,60.80
2023-05-05T12:12:10.776Z,70.70
2023-05-05T12:14:55.559Z,62.90
2023-05-05T12:17:41.410Z,63.63
2023-05-05T12:20:16.596Z,74.77
2023-05-05T12:22:56.129Z,74.47
2023-05-05T12:25:43.361Z,72.50
2023-05-05T12:28:24.794Z,70.27
2023-05-05T12:31:17.747Z,64.43
2023-05-05T12:33:53.406Z,71.40
2023-05-05T12:36:29.243Z,81.93
2023-05-05T12:39:07.966Z,70.77
2023-05-05T12:41:46.797Z,57.50
2023-05-05T12:44:20.030Z,76.73
2023-05-05T12:47:17.825Z,62.53
2023-05-05T12:49:55.669Z,78.00
2023-05-05T12:52:47.050Z,56.50
2023-05-05T12:55:24.736Z,57.40
2023-05-05T12:58:07.152Z,71.93
2023-05-05T13:00:53.996Z,64.40
2023-05-05T13:03:32.850Z,75.70
2023-05-05T13:06:26.054Z,70.90
2023-05-05T13:09:07.956Z,59.90
2023-05-05T13:11:46.310Z,67.63
2023-05-05T13:14:22.593Z,65.50
2023-05-05T13:16:58.571Z,56.90
2023-05-05T13:19:37.682Z,60.33
2023-05-05T13:22:14.811Z,67.83
2023-05-05T13:24:53.033Z,57.43
2023-05-05T13:27:35.890Z,59.80
2023-05-05T13:30:12.572Z,63.33
2023-05-05T13:32:49.647Z,59.90
2023-05-05T13:35:25.933Z,63.40
2023-05-05T13:38:04.352Z,61.20
2023-05-05T13:40:45.618Z,66.80
2023-05-05T13:43:25.105Z,71.60
2023-05-05T13:46:18.700Z,71.93
2023-05-05T13:48:56.779Z,73.53
2023-05-05T13:51:39.060Z,70.10
2023-05-05T13:54:16.065Z,72.20
2023-05-05T13:57:04.506Z,75.53
2023-05-05T13:59:43.146Z,69.07
2023-05-05T14:02:22.900Z,79.40
2023-05-05T14:04:58.905Z,72.60
2023-05-05T14:07:49.870Z,62.87
2023-05-05T14:10:30.174Z,56.47
2023-05-05T14:13:17.893Z,64.50
2023-05-05T14:16:30.067Z,49.70
2023-05-05T14:19:08.632Z,47.53
2023-05-05T14:21:44.548Z,59.90
2023-05-05T14:24:20.074Z,55.57
2023-05-05T14:29:56.920Z,52.70
2023-05-05T14:32:35.171Z,42.07
2023-05-05T14:35:12.199Z,49.80
2023-05-05T14:37:45.662Z,40.83
2023-05-05T14:40:25.526Z,57.97
2023-05-05T14:43:00.446Z,52.83
2023-05-05T14:45:35.390Z,41.00
2023-05-05T14:50:57.645Z,42.97
2023-05-05T14:53:32.648Z,52.03
2023-05-05T14:56:11.220Z,57.80
2023-05-05T14:58:54.187Z,47.23
2023-05-05T15:01:31.120Z,47.50
2023-05-05T15:04:09.988Z,46.10
2023-05-05T15:06:48.774Z,53.53
2023-05-05T15:09:31.829Z,44.37
2023-05-05T15:12:10.600Z,53.93
2023-05-05T15:14:48.765Z,55.93
2023-05-05T15:17:29.716Z,50.17
2023-05-05T15:20:08.267Z,38.67
2023-05-05T15:22:49.633Z,49.27
2023-05-05T15:25:36.569Z,48.03
2023-05-05T15:28:17.584Z,48.20
2023-05-05T15:30:56.743Z,47.17
2023-05-05T15:33:32.999Z,46.33
2023-05-05T15:36:11.690Z,41.00
2023-05-05T15:38:47.275Z,60.27
2023-05-05T15:41:31.413Z,42.70
2023-05-05T15:44:09.832Z,52.70
2023-05-05T15:46:50.671Z,49.50
2023-05-05T15:49:26.967Z,47.80
2023-05-05T15:52:04.654Z,39.57
2023-05-05T15:54:41.441Z,44.97
2023-05-05T15:57:16.885Z,50.90
2023-05-05T15:59:56.560Z,46.90
2023-05-05T16:02:37.574Z,40.93
2023-05-05T16:05:14.251Z,42.50
2023-05-05T16:07:56.560Z,44.63
2023-05-05T16:10:34.840Z,48.57
2023-05-05T16:13:12.575Z,46.03
2023-05-05T16:15:52.229Z,43.67
2023-05-05T16:18:26.239Z,37.67
2023-05-05T16:21:05.649Z,45.60
2023-05-05T16:23:39.478Z,40.67
2023-05-05T16:26:15.635Z,44.87
2023-05-05T16:28:51.589Z,38.63
2023-05-05T16:31:31.285Z,37.73
2023-05-05T16:34:17.866Z,43.50
2023-05-05T16:37:11.027Z,42.60
2023-05-05T16:39:50.216Z,36.47
2023-05-05T16:42:26.290Z,37.13
2023-05-05T16:45:05.963Z,45.57
2023-05-05T16:47:45.534Z,37.00
2023-05-05T16:50:23.690Z,35.87
2023-05-05T16:52:59.508Z,38.80
2023-05-05T16:55:34.413Z,32.00
2023-05-05T16:58:12.279Z,30.77
2023-05-05T17:00:51.383Z,34.60
2023-05-05T17:03:28.763Z,33.47
2023-05-05T17:06:04.048Z,36.20
2023-05-05T17:08:40.121Z,34.50
2023-05-05T17:11:14.545Z,33.53
2023-05-05T17:13:55.075Z,30.27
2023-05-05T17:16:33.124Z,30.87
2023-05-05T17:19:11.125Z,31.67
2023-05-05T17:21:48.489Z,39.27
2023-05-05T17:24:23.826Z,34.43
2023-05-05T17:26:57.532Z,26.03
2023-05-05T17:29:43.216Z,26.97
2023-05-05T17:32:22.420Z,28.80
2023-05-05T17:35:04.207Z,28.40
2023-05-05T17:37:37.923Z,35.33
2023-05-05T17:40:14.027Z,30.93
2023-05-05T17:42:51.459Z,29.30
2023-05-05T17:45:29.288Z,32.30
2023-05-05T17:48:06.500Z,28.40
2023-05-05T17:50:46.660Z,29.30
2023-05-05T17:53:25.066Z,31.37
2023-05-05T17:55:59.401Z,28.87
2023-05-05T17:58:37.551Z,32.83
2023-05-05T18:01:26.074Z,25.93
2023-05-05T18:04:18.480Z,25.10
2023-05-05T18:06:58.126Z,24.67
2023-05-05T18:09:37.372Z,29.03
2023-05-05T18:12:21.193Z,27.97
2023-05-05T18:14:56.737Z,29.17
2023-05-05T18:17:30.583Z,29.10
2023-05-05T18:20:05.666Z,35.20
2023-05-05T18:22:42.267Z,28.87
2023-05-05T18:25:17.736Z,27.57
2023-05-05T18:27:52.828Z,24.23
2023-05-05T18:30:27.590Z,30.37
2023-05-05T18:33:01.823Z,28.27
2023-05-05T18:35:38.474Z,24.40
2023-05-05T18:38:14.183Z,29.07
2023-05-05T18:40:50.423Z,29.33
2023-05-05T18:43:27.572Z,25.27
2023-05-05T18:46:10.857Z,26.57
2023-05-05T18:48:46.750Z,28.10
2023-05-05T18:51:22.295Z,30.47
2023-05-05T18:54:04.015Z,27.40
2023-05-05T18:56:40.265Z,33.80
2023-05-05T18:59:17.679Z,22.77
2023-05-05T19:01:59.430Z,27.77
2023-05-05T19:04:34.502Z,27.23
2023-05-05T19:07:14.493Z,32.93
2023-05-05T19:09:59.559Z,29.17
2023-05-05T19:12:34.084Z,23.50
2023-05-05T19:15:11.074Z,27.03
2023-05-05T19:17:47.650Z,20.17
2023-05-05T19:20:24.223Z,31.53
2023-05-05T19:23:06.357Z,29.53
2023-05-05T19:25:57.256Z,23.37
2023-05-05T19:28:31.678Z,33.67
2023-05-05T19:31:05.733Z,29.37
2023-05-05T19:33:42.064Z,27.27
2023-05-05T19:39:30.044Z,32.97
2023-05-05T19:42:05.236Z,23.53
2023-05-05T19:44:40.740Z,29.50
2023-05-05T19:47:18.624Z,26.03
2023-05-05T19:49:53.834Z,23.57
2023-05-05T19:52:32.735Z,22.50
2023-05-05T19:55:11.574Z,29.37
2023-05-05T19:57:49.641Z,28.73
2023-05-05T20:00:30.334Z,35.73
2023-05-05T20:03:03.699Z,33.70
2023-05-05T20:05:43.608Z,28.80
2023-05-05T20:08:21.414Z,28.97
2023-05-05T20:10:59.120Z,25.17
2023-05-05T20:13:36.193Z,28.97
2023-05-05T20:16:14.798Z,31.87
2023-05-05T20:18:56.481Z,36.87
2023-05-05T20:21:30.358Z,28.00
2023-05-05T20:24:14.057Z,32.77
2023-05-05T20:27:04.937Z,28.50
2023-05-05T20:29:55.473Z,32.03
2023-05-05T20:32:34.342Z,28.93
2023-05-05T20:35:11.128Z,27.83
2023-05-05T20:37:46.965Z,25.90
2023-05-05T20:40:34.946Z,32.87
2023-05-05T20:43:16.828Z,29.87
2023-05-05T20:45:53.496Z,25.27
2023-05-05T20:48:31.721Z,32.37
2023-05-05T20:51:15.656Z,29.23
2023-05-05T20:53:53.045Z,33.63
2023-05-05T20:56:28.725Z,36.57
2023-05-05T20:59:06.285Z,32.47
2023-05-05T21:01:44.565Z,31.53
2023-05-05T21:04:20.561Z,28.57
2023-05-05T21:06:55.941Z,35.97
2023-05-05T21:09:38.099Z,32.57
2023-05-05T21:12:15.664Z,34.43
2023-05-05T21:14:55.491Z,32.07
2023-05-05T21:17:37.356Z,40.17
2023-05-05T21:20:12.110Z,35.43
2023-05-05T21:22:51.013Z,27.57
2023-05-05T21:25:34.535Z,30.00
2023-05-05T21:28:09.736Z,33.13
2023-05-05T21:30:45.199Z,34.30
2023-05-05T21:33:27.635Z,32.00
2023-05-05T21:36:22.282Z,27.83
2023-05-05T21:39:11.103Z,39.87
2023-05-05T21:41:45.591Z,35.07
2023-05-05T21:44:22.156Z,36.40
2023-05-05T21:47:01.876Z,34.90
2023-05-05T21:49:37.886Z,31.20
2023-05-05T21:52:15.967Z,30.63
2023-05-05T21:54:55.471Z,37.57
2023-05-05T21:57:31.266Z,29.00
2023-05-05T22:00:04.946Z,36.57
2023-05-05T22:02:48.220Z,31.93
2023-05-05T22:05:26.590Z,38.50
2023-05-05T22:08:04.738Z,38.57
2023-05-05T22:10:40.684Z,32.00
2023-05-05T22:13:19.625Z,41.33
2023-05-05T22:15:56.478Z,40.00
2023-05-05T22:18:36.965Z,40.57
2023-05-05T22:21:14.156Z,38.27
2023-05-05T22:23:47.862Z,40.90
2023-05-05T22:26:27.410Z,36.67
2023-05-05T22:29:02.250Z,40.20
2023-05-05T22:31:40.687Z,48.53
2023-05-05T22:34:25.061Z,41.37
2023-05-05T22:37:10.478Z,35.13
2023-05-05T22:39:46.274Z,38.23
2023-05-05T22:42:20.072Z,38.43
2023-05-05T22:44:54.923Z,44.07
2023-05-05T22:47:47.117Z,40.97
2023-05-05T22:50:26.383Z,37.53
2023-05-05T22:53:03.373Z,39.23
2023-05-05T22:55:41.651Z,39.40
2023-05-05T22:58:19.944Z,40.93
2023-05-05T23:00:53.706Z,51.13
2023-05-05T23:03:26.652Z,44.43
2023-05-05T23:06:10.956Z,36.33
2023-05-05T23:09:06.902Z,47.90
2023-05-05T23:11:43.329Z,41.20
2023-05-05T23:14:18.739Z,37.53
2023-05-05T23:16:55.018Z,35.33
2023-05-05T23:19:33.862Z,35.30
2023-05-05T23:22:07.716Z,34.73
2023-05-05T23:24:50.109Z,33.20
2023-05-05T23:27:26.909Z,28.93
2023-05-05T23:30:01.018Z,24.57
2023-05-05T23:33:07.972Z,30.77
2023-05-05T23:35:44.927Z,28.90
2023-05-05T23:38:18.287Z,33.07
2023-05-05T23:40:55.112Z,38.17
2023-05-05T23:43:28.051Z,29.47
2023-05-05T23:46:05.410Z,38.30
2023-05-05T23:48:41.812Z,33.13
2023-05-05T23:51:18.919Z,33.87
2023-05-05T23:53:55.527Z,30.10
2023-05-05T23:56:31.775Z,35.83
2023-05-05T23:59:12.699Z,31.80
